Sunday, October 21, 2018, 9:55 PM EDT
Back to Local

KHVN, Tweed-new Haven Airport

Location: East Haven, CT, United States Lat: 41.267
Local Time: 9:55 PM EDT ( 1:55 GMT) Lon: -72.883
Time Zone: US/Eastern Elev: 13 ft

Show me the last for .
Show Decoded

2018-10-21 20:53 METAR KHVN 220053Z 35007KT 10SM CLR 04/M04 A3011 RMK AO2 SLP194 T00441044 =
2018-10-21 19:53 METAR KHVN 212353Z 33009G17KT 10SM CLR 06/M05 A3008 RMK AO2 SLP186 T00611050
                 10094 20056 51041 =
2018-10-21 18:53 METAR KHVN 212253Z 33009G17KT 10SM CLR 07/M06 A3005 RMK AO2 SLP175 T00671061 =
2018-10-21 17:53 METAR KHVN 212153Z 33009G16KT 10SM CLR 07/M05 A3000 RMK AO2 SLP159 T00721050 =
2018-10-21 16:53 METAR KHVN 212053Z 33016G24KT 10SM FEW050 08/M07 A2996 RMK AO2 PK WND 34026/2042
                 SLP145 T00831067 53020 =
2018-10-21 15:53 METAR KHVN 211953Z 32012G24KT 10SM CLR 09/M06 A2993 RMK AO2 PK WND 33027/1856
                 SLP135 T00891061 =
2018-10-21 14:53 METAR KHVN 211853Z 32011G25KT 10SM CLR 09/M06 A2991 RMK AO2 PK WND 32029/1757
                 SLP128 T00941056 =
2018-10-21 13:53 METAR KHVN 211753Z 32011G25KT 10SM SCT055 09/M03 A2990 RMK AO2 PK WND 32030/1724
                 SLP124 T00891033 10094 20078 51006 =
2018-10-21 12:53 METAR KHVN 211653Z 34013G24KT 10SM SCT048 08/M03 A2990 RMK AO2 PK WND 32029/1616
                 SLP124 T00831033 =
2018-10-21 11:53 METAR KHVN 211553Z 32015G27KT 10SM SCT044 08/M03 A2989 RMK AO2 PK WND 32029/1551
                 SLP121 T00831028 =
2018-10-21 10:53 METAR KHVN 211453Z 34019G28KT 10SM SCT041 BKN250 08/M03 A2988 RMK AO2 PK WND
                 35028/1452 SLP118 T00831028 51046 =
2018-10-21 09:53 METAR KHVN 211353Z 32017G27KT 10SM BKN041 BKN150 08/M01 A2986 RMK AO2 PK WND
                 34026/1346 SLP109 T00781011 =
2018-10-21 08:53 METAR KHVN 211253Z 33014G21KT 10SM SCT070 BKN090 BKN110 09/M01 A2980 RMK AO2
                 SLP091 T00891006 =
2018-10-21 07:53 METAR KHVN 211153Z 33011G18KT 10SM SCT050 BKN075 BKN095 09/04 A2975 RMK AO2
                 SLP072 T00940039 10106 20094 53045 =
2018-10-21 06:53 METAR KHVN 211053Z 33015G23KT 10SM BKN045 OVC075 10/03 A2968 RMK AO2 SLP052
                 T01000033 =
2018-10-21 05:53 METAR KHVN 210953Z 33010G15KT 10SM BKN043 OVC055 09/04 A2965 RMK AO2 SLP040
                 T00940044 =
2018-10-21 04:53 METAR KHVN 210853Z AUTO 34010G17KT 10SM BKN050 OVC060 10/04 A2961 RMK AO2 SLP027
                 T01000039 53009 =
2018-10-21 03:53 METAR KHVN 210753Z AUTO 35011KT 10SM OVC065 09/04 A2958 RMK AO2 SLP015 T00940044
                 =
2018-10-21 02:53 METAR KHVN 210653Z AUTO 33006G16KT 10SM FEW050 OVC075 11/06 A2959 RMK AO2 SLP020
                 T01060056 =
2018-10-21 01:53 METAR KHVN 210553Z AUTO 35006KT 10SM BKN055 OVC085 10/07 A2958 RMK AO2 SLP017
                 T01000067 10117 20072 58010 =
2018-10-21 00:53 METAR KHVN 210453Z AUTO 31005KT 10SM SCT049 BKN060 OVC075 11/07 A2960 RMK AO2
                 SLP023 T01110072 401780072 =
2018-10-20 23:53 METAR KHVN 210353Z AUTO 00000KT 10SM BKN085 OVC110 09/07 A2960 RMK AO2 SLP023
                 T00890072 =
2018-10-20 22:53 METAR KHVN 210253Z AUTO 00000KT 10SM SCT095 08/06 A2961 RMK AO2 SLP027 T00830061
                 51003 =

Support USWX by starting your Amazon purchase here.